Time;durP1;ratioP1;P1;durP2;ratioP2;P2;SDS_P1;SDS_P2;PMS_P1;PMS_P2;Temp;Humidity;BMP_temperature;BMP_pressure;BME280_temperature;BME280_humidity;BME280_pressure;Samples;Min_cycle;Max_cycle;Signal;HPM_P1;HPM_P2
2021/07/16 00:00:48;;;;;;;7.72;1.45;;;;;;;;;;6996720;28;20048;-78
2021/07/16 00:04:09;;;;;;;1.25;1.00;;;;;;;;;;6997813;28;20049;-78
2021/07/16 00:07:29;;;;;;;3.10;1.30;;;;;;;;;;6997744;28;20040;-78
2021/07/16 00:10:50;;;;;;;1.67;1.02;;;;;;;;;;6997477;28;20047;-78
2021/07/16 00:14:10;;;;;;;1.40;0.80;;;;;;;;;;6997129;28;20141;-78
2021/07/16 00:17:31;;;;;;;3.95;1.05;;;;;;;;;;6997702;28;20044;-78
2021/07/16 00:20:51;;;;;;;1.40;1.10;;;;;;;;;;6997067;28;20056;-78
2021/07/16 00:24:12;;;;;;;2.40;1.30;;;;;;;;;;6997464;28;20048;-77
2021/07/16 00:27:32;;;;;;;1.92;1.10;;;;;;;;;;6997550;28;20037;-77
2021/07/16 00:30:53;;;;;;;1.48;1.10;;;;;;;;;;6996689;28;20044;-78
2021/07/16 00:34:13;;;;;;;1.55;1.13;;;;;;;;;;6997278;28;20060;-77
2021/07/16 00:37:33;;;;;;;1.20;1.10;;;;;;;;;;6996948;28;20154;-77
2021/07/16 00:40:54;;;;;;;1.73;0.80;;;;;;;;;;6995956;28;20478;-78
2021/07/16 00:44:20;;;;;;;2.45;1.05;;;;;;;;;;6996815;28;20127;-78
2021/07/16 00:47:42;;;;;;;1.95;1.10;;;;;;;;;;6978901;28;20131;-77
2021/07/16 00:51:03;;;;;;;1.55;1.10;;;;;;;;;;6996686;28;20040;-78
2021/07/16 00:54:23;;;;;;;1.33;1.00;;;;;;;;;;6996740;28;20406;-78
2021/07/16 00:57:45;;;;;;;1.48;0.98;;;;;;;;;;6978701;28;20052;-78
2021/07/16 01:01:06;;;;;;;1.20;0.93;;;;;;;;;;6996229;28;20098;-77
2021/07/16 01:04:26;;;;;;;1.50;1.05;;;;;;;;;;6995156;28;20052;-77
2021/07/16 01:07:49;;;;;;;1.08;0.90;;;;;;;;;;6996100;28;20134;-77
2021/07/16 01:11:10;;;;;;;1.67;1.13;;;;;;;;;;6978620;28;20048;-78
2021/07/16 01:14:30;;;;;;;1.75;1.15;;;;;;;;;;6995988;28;20049;-78
2021/07/16 01:17:52;;;;;;;2.08;0.80;;;;;;;;;;6996612;28;20179;-77
2021/07/16 01:21:13;;;;;;;1.48;1.02;;;;;;;;;;6995607;28;20549;-77
2021/07/16 01:24:34;;;;;;;2.20;1.10;;;;;;;;;;6978166;28;20041;-78
2021/07/16 01:27:57;;;;;;;1.08;0.90;;;;;;;;;;7008397;22;20109;-77
2021/07/16 01:31:19;;;;;;;1.23;0.98;;;;;;;;;;6996156;28;20044;-78
2021/07/16 01:34:39;;;;;;;1.70;0.90;;;;;;;;;;6985329;28;20506;-77
2021/07/16 01:38:00;;;;;;;2.15;0.95;;;;;;;;;;7010021;28;20045;-78
2021/07/16 01:41:21;;;;;;;0.95;0.90;;;;;;;;;;6995680;28;20131;-77
2021/07/16 01:44:42;;;;;;;1.65;0.82;;;;;;;;;;6995611;28;20044;-78
2021/07/16 01:48:05;;;;;;;0.68;0.68;;;;;;;;;;6995544;28;20044;-77
2021/07/16 01:51:25;;;;;;;1.25;0.90;;;;;;;;;;6997268;28;20490;-77
2021/07/16 01:54:46;;;;;;;2.45;1.08;;;;;;;;;;7000209;28;20036;-78
2021/07/16 01:58:08;;;;;;;1.85;1.00;;;;;;;;;;7017179;28;20070;-77
2021/07/16 02:01:29;;;;;;;1.30;1.00;;;;;;;;;;7011653;28;20052;-78
2021/07/16 02:04:50;;;;;;;1.45;1.02;;;;;;;;;;7000563;28;20410;-78
2021/07/16 02:08:15;;;;;;;1.70;0.90;;;;;;;;;;7000796;28;20049;-77
2021/07/16 02:11:35;;;;;;;1.15;0.70;;;;;;;;;;7014723;28;20431;-78
2021/07/16 02:14:55;;;;;;;1.05;0.85;;;;;;;;;;7001049;28;20536;-78
2021/07/16 02:18:20;;;;;;;1.52;1.00;;;;;;;;;;7013893;28;20501;-77
2021/07/16 02:21:41;;;;;;;0.80;0.80;;;;;;;;;;7000353;28;20478;-78
2021/07/16 02:25:01;;;;;;;1.50;0.90;;;;;;;;;;7012879;28;20098;-78
2021/07/16 02:28:26;;;;;;;1.38;1.00;;;;;;;;;;7000976;28;20044;-78
2021/07/16 02:31:49;;;;;;;3.65;0.90;;;;;;;;;;6981508;28;20131;-78
2021/07/16 02:35:10;;;;;;;1.45;0.90;;;;;;;;;;6999604;28;20159;-78
2021/07/16 02:38:30;;;;;;;0.70;0.70;;;;;;;;;;6999092;28;20049;-78
2021/07/16 02:41:51;;;;;;;1.17;0.88;;;;;;;;;;6999724;28;20402;-77
2021/07/16 02:45:17;;;;;;;1.27;0.98;;;;;;;;;;6999439;28;20044;-78
2021/07/16 02:48:40;;;;;;;2.88;0.85;;;;;;;;;;6999362;28;20148;-77
2021/07/16 02:52:00;;;;;;;0.88;0.80;;;;;;;;;;6999032;28;20048;-78
2021/07/16 02:55:22;;;;;;;1.38;1.02;;;;;;;;;;6999045;28;20049;-77
2021/07/16 02:58:42;;;;;;;0.80;0.80;;;;;;;;;;6998886;28;20056;-78
2021/07/16 03:02:05;;;;;;;0.75;0.75;;;;;;;;;;6998851;28;20102;-77
2021/07/16 03:05:28;;;;;;;1.00;0.90;;;;;;;;;;6998546;28;20071;-77
2021/07/16 03:08:48;;;;;;;2.40;0.88;;;;;;;;;;6999025;28;20378;-78
2021/07/16 03:12:09;;;;;;;0.68;0.68;;;;;;;;;;7018227;28;20556;-78
2021/07/16 03:15:29;;;;;;;0.95;0.82;;;;;;;;;;6989894;28;20410;-77
2021/07/16 03:18:50;;;;;;;0.80;0.80;;;;;;;;;;6998672;28;20072;-78
2021/07/16 03:22:12;;;;;;;1.00;0.90;;;;;;;;;;7002410;28;20044;-78
2021/07/16 03:25:33;;;;;;;1.20;0.80;;;;;;;;;;7009116;28;20059;-78
2021/07/16 03:28:53;;;;;;;1.00;0.73;;;;;;;;;;6998587;28;20040;-77
2021/07/16 03:32:14;;;;;;;0.82;0.70;;;;;;;;;;6998191;28;20095;-77
2021/07/16 03:35:34;;;;;;;0.70;0.70;;;;;;;;;;6998227;28;20044;-77
2021/07/16 03:38:55;;;;;;;0.77;0.68;;;;;;;;;;6998152;28;20375;-78
2021/07/16 03:42:19;;;;;;;1.30;0.77;;;;;;;;;;6998291;28;20135;-77
2021/07/16 03:45:40;;;;;;;0.70;0.70;;;;;;;;;;6980201;28;20132;-77
2021/07/16 03:49:00;;;;;;;0.57;0.57;;;;;;;;;;6998294;28;20061;-78
2021/07/16 03:52:21;;;;;;;1.48;0.75;;;;;;;;;;6998212;28;20084;-77
2021/07/16 03:55:42;;;;;;;0.98;0.70;;;;;;;;;;6998141;28;20064;-78
2021/07/16 03:59:02;;;;;;;1.17;0.80;;;;;;;;;;6997908;28;20390;-78
2021/07/16 04:02:23;;;;;;;0.70;0.70;;;;;;;;;;6997643;28;20048;-78
2021/07/16 04:05:45;;;;;;;1.20;0.90;;;;;;;;;;6997740;28;20128;-78
2021/07/16 04:09:26;;;;;;;2.60;0.70;;;;;;;;;;6997819;28;20067;-78
2021/07/16 04:12:52;;;;;;;0.73;0.73;;;;;;;;;;7011990;28;20116;-78
2021/07/16 04:16:12;;;;;;;0.85;0.75;;;;;;;;;;7007976;28;20481;-78
2021/07/16 04:19:33;;;;;;;0.60;0.60;;;;;;;;;;7001172;28;20140;-78
2021/07/16 04:22:54;;;;;;;0.63;0.60;;;;;;;;;;6997305;28;20056;-78
2021/07/16 04:26:15;;;;;;;1.88;1.00;;;;;;;;;;6997438;28;20056;-78
2021/07/16 04:29:36;;;;;;;0.60;0.60;;;;;;;;;;6997317;28;20048;-78
2021/07/16 04:32:59;;;;;;;1.08;0.90;;;;;;;;;;6998954;28;20048;-78
2021/07/16 04:36:19;;;;;;;1.75;0.77;;;;;;;;;;7013286;28;20140;-78
2021/07/16 04:39:39;;;;;;;1.02;0.90;;;;;;;;;;6998891;28;20042;-78
2021/07/16 04:43:01;;;;;;;1.02;0.88;;;;;;;;;;6998707;28;20102;-78
2021/07/16 04:46:22;;;;;;;0.60;0.60;;;;;;;;;;6998190;28;20044;-78
2021/07/16 04:49:43;;;;;;;0.80;0.80;;;;;;;;;;7003502;28;20130;-77
2021/07/16 04:53:03;;;;;;;0.75;0.70;;;;;;;;;;7004276;28;20063;-77
2021/07/16 04:56:25;;;;;;;1.58;0.60;;;;;;;;;;6996814;28;20064;-77
2021/07/16 04:59:46;;;;;;;0.60;0.60;;;;;;;;;;6996664;28;20049;-77
2021/07/16 05:03:06;;;;;;;0.95;0.70;;;;;;;;;;6996525;28;20045;-78
2021/07/16 05:06:27;;;;;;;0.60;0.60;;;;;;;;;;6996433;28;20102;-78
2021/07/16 05:09:47;;;;;;;0.80;0.80;;;;;;;;;;6996604;28;20041;-78
2021/07/16 05:13:07;;;;;;;1.95;1.00;;;;;;;;;;7010195;28;20075;-78
2021/07/16 05:16:28;;;;;;;0.77;0.77;;;;;;;;;;6996567;28;20049;-79
2021/07/16 05:19:48;;;;;;;0.75;0.75;;;;;;;;;;6996117;28;20127;-78
2021/07/16 05:23:09;;;;;;;0.65;0.65;;;;;;;;;;6996278;28;20057;-79
2021/07/16 05:26:29;;;;;;;0.70;0.70;;;;;;;;;;7006486;28;20615;-78
2021/07/16 05:29:50;;;;;;;0.85;0.77;;;;;;;;;;7002423;28;20048;-79
2021/07/16 05:33:10;;;;;;;1.45;0.98;;;;;;;;;;7019923;28;20040;-79
2021/07/16 05:36:31;;;;;;;1.30;0.60;;;;;;;;;;7023797;28;20067;-79
2021/07/16 05:39:51;;;;;;;1.00;0.75;;;;;;;;;;7023298;28;20067;-79
2021/07/16 05:43:12;;;;;;;1.25;0.60;;;;;;;;;;7023773;28;20044;-80
2021/07/16 05:46:33;;;;;;;0.82;0.65;;;;;;;;;;7023371;28;20052;-80
2021/07/16 05:49:53;;;;;;;0.60;0.60;;;;;;;;;;7023470;28;20079;-80
2021/07/16 05:53:14;;;;;;;1.60;0.70;;;;;;;;;;7020145;28;20375;-79
2021/07/16 05:56:39;;;;;;;1.92;0.73;;;;;;;;;;7023138;28;20040;-78
2021/07/16 06:00:01;;;;;;;0.50;0.50;;;;;;;;;;7023084;28;20052;-79
2021/07/16 06:03:22;;;;;;;0.70;0.70;;;;;;;;;;7022444;28;20072;-80
2021/07/16 06:06:42;;;;;;;0.73;0.70;;;;;;;;;;7011615;28;20072;-80
2021/07/16 06:10:04;;;;;;;0.50;0.50;;;;;;;;;;7022826;28;20040;-80
2021/07/16 06:13:25;;;;;;;0.80;0.73;;;;;;;;;;7007678;28;20052;-79
2021/07/16 06:16:49;;;;;;;0.55;0.55;;;;;;;;;;6994792;28;20064;-78
2021/07/16 06:20:11;;;;;;;0.82;0.73;;;;;;;;;;6996363;28;20064;-78
2021/07/16 06:23:31;;;;;;;0.63;0.63;;;;;;;;;;7018973;28;20090;-78
2021/07/16 06:26:52;;;;;;;0.70;0.70;;;;;;;;;;7020331;28;20056;-78
2021/07/16 06:30:14;;;;;;;0.70;0.70;;;;;;;;;;7022539;28;20067;-78
2021/07/16 06:33:34;;;;;;;0.60;0.60;;;;;;;;;;7022425;28;20494;-79
2021/07/16 06:36:55;;;;;;;2.17;0.50;;;;;;;;;;7021962;28;20052;-78
2021/07/16 06:40:16;;;;;;;0.50;0.50;;;;;;;;;;7026651;28;20163;-78
2021/07/16 06:43:37;;;;;;;1.38;0.68;;;;;;;;;;7027420;28;20413;-78
2021/07/16 06:46:57;;;;;;;0.60;0.60;;;;;;;;;;7028199;28;20118;-78
2021/07/16 06:50:17;;;;;;;0.85;0.70;;;;;;;;;;7027571;28;20052;-78
2021/07/16 06:53:38;;;;;;;0.80;0.73;;;;;;;;;;7027885;28;20047;-78
2021/07/16 06:56:59;;;;;;;0.85;0.60;;;;;;;;;;7027252;28;20048;-78
2021/07/16 07:00:19;;;;;;;1.17;0.68;;;;;;;;;;7026993;28;20047;-79
2021/07/16 07:03:40;;;;;;;4.60;0.80;;;;;;;;;;7026173;28;20044;-77
2021/07/16 07:07:00;;;;;;;1.45;0.50;;;;;;;;;;7026759;28;20081;-78
2021/07/16 07:10:21;;;;;;;1.42;0.50;;;;;;;;;;7026497;28;20450;-77
2021/07/16 07:13:41;;;;;;;1.38;0.68;;;;;;;;;;7008891;28;20052;-77
2021/07/16 07:17:02;;;;;;;0.50;0.50;;;;;;;;;;6998773;28;20123;-77
2021/07/16 07:20:22;;;;;;;0.63;0.63;;;;;;;;;;6998440;28;20501;-78
2021/07/16 07:23:42;;;;;;;0.90;0.60;;;;;;;;;;7000854;28;20072;-77
2021/07/16 07:27:03;;;;;;;1.60;0.80;;;;;;;;;;7010374;28;20052;-77
2021/07/16 07:30:24;;;;;;;0.57;0.52;;;;;;;;;;6998328;28;20044;-77
2021/07/16 07:33:45;;;;;;;0.70;0.70;;;;;;;;;;6998034;28;20048;-78
2021/07/16 07:37:06;;;;;;;2.00;0.65;;;;;;;;;;7012592;28;20044;-78
2021/07/16 07:40:26;;;;;;;3.70;0.80;;;;;;;;;;6998236;28;20151;-77
2021/07/16 07:43:47;;;;;;;3.38;0.77;;;;;;;;;;6998458;28;20056;-77
2021/07/16 07:47:07;;;;;;;0.63;0.63;;;;;;;;;;6997770;28;20521;-78
2021/07/16 07:50:28;;;;;;;2.17;0.45;;;;;;;;;;6998000;28;20444;-78
2021/07/16 07:53:48;;;;;;;0.43;0.43;;;;;;;;;;6998165;28;20049;-77
2021/07/16 07:57:09;;;;;;;0.77;0.75;;;;;;;;;;7012601;28;20041;-78
2021/07/16 08:00:33;;;;;;;0.98;0.80;;;;;;;;;;7023824;28;20528;-78
2021/07/16 08:03:53;;;;;;;0.60;0.60;;;;;;;;;;7001628;28;20509;-80
2021/07/16 08:07:13;;;;;;;7.57;1.33;;;;;;;;;;6998543;28;20135;-80
2021/07/16 08:10:34;;;;;;;6.22;1.17;;;;;;;;;;7013267;28;20040;-82
2021/07/16 08:13:54;;;;;;;3.13;0.80;;;;;;;;;;7007223;28;20073;-81
2021/07/16 08:17:15;;;;;;;13.82;1.25;;;;;;;;;;7003506;28;20068;-82
2021/07/16 08:20:35;;;;;;;3.65;1.20;;;;;;;;;;7001262;28;20055;-83
2021/07/16 08:23:55;;;;;;;3.58;1.17;;;;;;;;;;7009482;28;20127;-83
2021/07/16 08:27:16;;;;;;;2.22;1.00;;;;;;;;;;7013056;28;20453;-83
2021/07/16 08:30:37;;;;;;;2.65;1.13;;;;;;;;;;7000752;28;20041;-83
2021/07/16 08:33:58;;;;;;;3.63;1.48;;;;;;;;;;7007822;28;20063;-82
2021/07/16 08:37:18;;;;;;;3.22;1.50;;;;;;;;;;6996343;28;20481;-83
2021/07/16 08:40:39;;;;;;;2.80;1.10;;;;;;;;;;6997011;28;20118;-84
2021/07/16 08:43:59;;;;;;;5.93;1.60;;;;;;;;;;6996837;28;20072;-85
2021/07/16 08:47:20;;;;;;;5.43;1.50;;;;;;;;;;6997017;28;20094;-86
2021/07/16 08:50:40;;;;;;;6.82;1.95;;;;;;;;;;6997237;28;20048;-81
2021/07/16 08:54:00;;;;;;;6.90;1.60;;;;;;;;;;7010439;28;20496;-84
2021/07/16 08:57:24;;;;;;;7.00;2.10;;;;;;;;;;7010288;28;20050;-85
2021/07/16 09:00:44;;;;;;;6.55;2.25;;;;;;;;;;6995977;28;20048;-85
2021/07/16 09:04:07;;;;;;;8.57;2.15;;;;;;;;;;6975654;28;20060;-85
2021/07/16 09:07:27;;;;;;;7.05;1.92;;;;;;;;;;6996310;28;20052;-85
2021/07/16 09:10:58;;;;;;;5.60;2.58;;;;;;;;;;7004263;28;20405;-86
2021/07/16 09:14:29;;;;;;;9.95;2.92;;;;;;;;;;7001295;28;20052;-85
2021/07/16 09:17:53;;;;;;;6.60;3.95;;;;;;;;;;6996290;28;20049;-85
2021/07/16 09:21:13;;;;;;;6.18;2.90;;;;;;;;;;6996100;28;20048;-87
2021/07/16 09:24:38;;;;;;;10.88;3.10;;;;;;;;;;6996000;28;20409;-87
2021/07/16 09:27:59;;;;;;;5.60;3.42;;;;;;;;;;7010616;28;20047;-86
2021/07/16 09:31:22;;;;;;;6.50;3.03;;;;;;;;;;6996152;28;20072;-85
2021/07/16 09:34:50;;;;;;;8.40;3.53;;;;;;;;;;6978146;28;20051;-87
2021/07/16 09:38:15;;;;;;;7.45;3.78;;;;;;;;;;6996074;28;20047;-86
2021/07/16 09:41:56;;;;;;;9.70;3.55;;;;;;;;;;6995600;28;20477;-85
2021/07/16 09:45:17;;;;;;;5.15;2.88;;;;;;;;;;6995523;28;20052;-86
2021/07/16 09:48:39;;;;;;;11.05;3.85;;;;;;;;;;6995470;28;20565;-87
2021/07/16 09:52:26;;;;;;;7.45;4.05;;;;;;;;;;6995757;28;20041;-87
2021/07/16 09:55:47;;;;;;;8.60;3.80;;;;;;;;;;6992719;28;20490;-85
2021/07/16 09:59:09;;;;;;;9.05;3.70;;;;;;;;;;6991716;28;20044;-85
2021/07/16 10:02:31;;;;;;;8.68;3.65;;;;;;;;;;6995624;28;20056;-87
2021/07/16 10:05:52;;;;;;;7.35;3.17;;;;;;;;;;7009586;28;20048;-86
2021/07/16 10:09:12;;;;;;;7.28;3.65;;;;;;;;;;7008257;28;20094;-87
2021/07/16 10:12:34;;;;;;;7.25;3.60;;;;;;;;;;6994219;28;20087;-84
2021/07/16 10:15:55;;;;;;;12.75;3.10;;;;;;;;;;6981914;28;20045;-83
2021/07/16 10:19:16;;;;;;;11.43;3.50;;;;;;;;;;6990167;28;20052;-86
2021/07/16 10:22:41;;;;;;;10.18;4.10;;;;;;;;;;7021053;28;20068;-87
2021/07/16 10:26:03;;;;;;;10.75;3.80;;;;;;;;;;7014966;28;20098;-86
2021/07/16 10:29:42;;;;;;;9.15;3.88;;;;;;;;;;6992045;28;20047;-86
2021/07/16 10:33:02;;;;;;;8.98;3.33;;;;;;;;;;6987795;28;20109;-87
2021/07/16 10:36:45;;;;;;;7.40;3.63;;;;;;;;;;7003253;28;20049;-87
2021/07/16 10:40:06;;;;;;;6.35;3.15;;;;;;;;;;7002383;28;20465;-85
2021/07/16 10:43:29;;;;;;;9.98;3.78;;;;;;;;;;6986354;28;20135;-84
2021/07/16 10:46:50;;;;;;;12.30;3.65;;;;;;;;;;7011058;28;20409;-84
2021/07/16 10:50:28;;;;;;;5.57;3.38;;;;;;;;;;7017748;28;20485;-84
2021/07/16 10:53:49;;;;;;;5.90;3.40;;;;;;;;;;6999742;28;20498;-84
2021/07/16 10:57:13;;;;;;;10.60;3.38;;;;;;;;;;7014402;28;20132;-84
2021/07/16 11:00:36;;;;;;;9.93;3.80;;;;;;;;;;7008830;28;20090;-85
2021/07/16 11:03:57;;;;;;;11.73;3.78;;;;;;;;;;7001413;28;20060;-85
2021/07/16 11:07:34;;;;;;;5.32;3.65;;;;;;;;;;7007434;28;20044;-85
2021/07/16 11:11:08;;;;;;;8.02;3.67;;;;;;;;;;7017782;28;20047;-84
2021/07/16 11:14:43;;;;;;;6.70;3.15;;;;;;;;;;7020307;28;20051;-85
2021/07/16 11:18:03;;;;;;;8.23;3.03;;;;;;;;;;7000346;28;20383;-86
2021/07/16 11:21:41;;;;;;;10.40;3.28;;;;;;;;;;6998744;28;20481;-86
2021/07/16 11:25:02;;;;;;;7.57;3.50;;;;;;;;;;7002016;28;20052;-85
2021/07/16 11:28:22;;;;;;;6.53;3.03;;;;;;;;;;6999723;28;20130;-85
2021/07/16 11:31:43;;;;;;;6.30;3.00;;;;;;;;;;7010552;28;20174;-85
2021/07/16 11:35:06;;;;;;;6.38;2.53;;;;;;;;;;7004952;28;20053;-85
2021/07/16 11:38:26;;;;;;;6.85;2.78;;;;;;;;;;7022672;28;20079;-85
2021/07/16 11:41:49;;;;;;;5.93;2.40;;;;;;;;;;7014962;28;20079;-85
2021/07/16 11:45:17;;;;;;;7.07;3.85;;;;;;;;;;7015279;28;20048;-85
2021/07/16 11:48:37;;;;;;;7.22;3.15;;;;;;;;;;7012030;28;20382;-84
2021/07/16 11:52:02;;;;;;;5.65;3.35;;;;;;;;;;7014290;28;20490;-84
2021/07/16 11:55:25;;;;;;;6.35;3.25;;;;;;;;;;7001548;28;20046;-85
2021/07/16 11:58:51;;;;;;;8.70;3.78;;;;;;;;;;6999539;28;20444;-84
2021/07/16 12:02:14;;;;;;;7.93;3.47;;;;;;;;;;6999132;28;20044;-84
2021/07/16 12:05:48;;;;;;;9.98;3.38;;;;;;;;;;7010845;28;20081;-85
2021/07/16 12:09:08;;;;;;;13.27;3.63;;;;;;;;;;7009591;28;20124;-84
2021/07/16 12:12:29;;;;;;;5.57;3.40;;;;;;;;;;7007274;28;20059;-85
2021/07/16 12:16:18;;;;;;;7.32;3.42;;;;;;;;;;7015527;28;20072;-84
2021/07/16 12:19:39;;;;;;;7.22;3.10;;;;;;;;;;6985201;28;20044;-84
2021/07/16 12:23:05;;;;;;;6.20;3.20;;;;;;;;;;7008089;28;20139;-84
2021/07/16 12:26:25;;;;;;;9.48;3.33;;;;;;;;;;7022875;28;20055;-84
2021/07/16 12:30:04;;;;;;;14.13;3.22;;;;;;;;;;7024761;28;20097;-82
2021/07/16 12:33:32;;;;;;;9.88;3.03;;;;;;;;;;7022709;28;20047;-81
2021/07/16 12:37:12;;;;;;;3.27;2.03;;;;;;;;;;7023617;28;20077;-81
2021/07/16 12:40:33;;;;;;;5.57;2.28;;;;;;;;;;7012520;28;20048;-83
2021/07/16 12:43:53;;;;;;;4.30;1.88;;;;;;;;;;7024545;28;20398;-82
2021/07/16 12:47:15;;;;;;;5.80;2.42;;;;;;;;;;7017805;28;20482;-83
2021/07/16 12:50:35;;;;;;;7.97;2.50;;;;;;;;;;7020783;28;20512;-87
2021/07/16 12:53:56;;;;;;;4.00;1.85;;;;;;;;;;7023870;28;20078;-84
2021/07/16 12:57:18;;;;;;;8.70;3.28;;;;;;;;;;7024042;28;20040;-83
2021/07/16 13:00:39;;;;;;;16.67;3.20;;;;;;;;;;7023742;28;20044;-83
2021/07/16 13:04:13;;;;;;;10.07;2.95;;;;;;;;;;7010602;28;20086;-85
2021/07/16 13:07:34;;;;;;;9.35;2.80;;;;;;;;;;7024520;28;20505;-84
2021/07/16 13:11:02;;;;;;;10.23;2.60;;;;;;;;;;7023928;28;20055;-85
2021/07/16 13:14:27;;;;;;;6.47;2.70;;;;;;;;;;7001059;28;20048;-84
2021/07/16 13:17:47;;;;;;;10.70;2.80;;;;;;;;;;7003919;28;20036;-84
2021/07/16 13:21:09;;;;;;;9.55;2.60;;;;;;;;;;7019228;28;20054;-84
2021/07/16 13:24:30;;;;;;;17.27;2.67;;;;;;;;;;7023878;28;20439;-82
2021/07/16 13:27:50;;;;;;;13.98;2.75;;;;;;;;;;7041248;22;20054;-85
2021/07/16 13:31:12;;;;;;;9.68;2.72;;;;;;;;;;7015177;28;20501;-83
2021/07/16 13:34:32;;;;;;;12.90;2.58;;;;;;;;;;7003347;28;20048;-84
2021/07/16 13:37:53;;;;;;;11.90;2.60;;;;;;;;;;7023530;28;20126;-84
2021/07/16 13:41:13;;;;;;;9.60;2.50;;;;;;;;;;7023501;28;20052;-83
2021/07/16 13:44:34;;;;;;;13.30;2.97;;;;;;;;;;7023350;28;20439;-85
2021/07/16 13:47:54;;;;;;;5.95;2.03;;;;;;;;;;6999937;28;20055;-83
2021/07/16 13:51:15;;;;;;;9.27;2.90;;;;;;;;;;6996906;28;20041;-83
2021/07/16 13:54:36;;;;;;;26.83;4.07;;;;;;;;;;6995808;28;20105;-83
2021/07/16 13:57:56;;;;;;;31.25;4.97;;;;;;;;;;6999786;28;20371;-83
2021/07/16 14:01:17;;;;;;;33.78;4.30;;;;;;;;;;7005505;28;20123;-83
2021/07/16 14:04:37;;;;;;;14.90;3.50;;;;;;;;;;7005477;28;21505;-83
2021/07/16 14:07:58;;;;;;;12.10;3.97;;;;;;;;;;7028098;28;20048;-83
2021/07/16 14:11:18;;;;;;;8.73;2.83;;;;;;;;;;7013973;28;20045;-82
2021/07/16 14:14:42;;;;;;;10.88;3.40;;;;;;;;;;7022853;28;20047;-84
2021/07/16 14:18:02;;;;;;;12.52;3.55;;;;;;;;;;7006829;28;20052;-82
2021/07/16 14:21:22;;;;;;;14.32;4.00;;;;;;;;;;7005685;28;20052;-82
2021/07/16 14:24:43;;;;;;;15.20;3.20;;;;;;;;;;7001858;28;20087;-83
2021/07/16 14:28:04;;;;;;;20.15;3.10;;;;;;;;;;7002100;28;20402;-83
2021/07/16 14:31:25;;;;;;;12.50;3.10;;;;;;;;;;7009410;28;20549;-84
2021/07/16 14:34:45;;;;;;;10.77;2.72;;;;;;;;;;7018135;28;20123;-83
2021/07/16 14:38:07;;;;;;;8.15;2.78;;;;;;;;;;7016023;28;20440;-85
2021/07/16 14:41:27;;;;;;;14.02;2.83;;;;;;;;;;7015766;28;20064;-84
2021/07/16 14:44:48;;;;;;;12.35;3.28;;;;;;;;;;7019089;28;20040;-85
2021/07/16 14:48:08;;;;;;;10.63;3.25;;;;;;;;;;7024986;28;20051;-86
2021/07/16 14:51:29;;;;;;;9.55;2.70;;;;;;;;;;7024911;28;20123;-85
2021/07/16 14:54:49;;;;;;;11.30;2.58;;;;;;;;;;7024273;28;20088;-85
2021/07/16 14:58:10;;;;;;;11.77;2.95;;;;;;;;;;7019009;28;20496;-86
2021/07/16 15:01:30;;;;;;;13.45;3.38;;;;;;;;;;7017707;28;20053;-88
2021/07/16 15:04:52;;;;;;;8.57;2.53;;;;;;;;;;7022786;28;20071;-83
2021/07/16 15:08:13;;;;;;;9.05;2.80;;;;;;;;;;7013567;28;20048;-84
2021/07/16 15:11:33;;;;;;;7.00;2.33;;;;;;;;;;7008819;28;20048;-83
2021/07/16 15:14:53;;;;;;;10.55;2.60;;;;;;;;;;7026572;28;20083;-83
2021/07/16 15:18:14;;;;;;;5.75;2.75;;;;;;;;;;7027210;28;20052;-88
2021/07/16 15:21:35;;;;;;;7.70;2.58;;;;;;;;;;7028574;28;20047;-88
2021/07/16 15:24:55;;;;;;;6.75;2.40;;;;;;;;;;7029987;28;20044;-88
2021/07/16 15:28:16;;;;;;;11.40;2.92;;;;;;;;;;7029291;28;20052;-88
2021/07/16 15:31:36;;;;;;;4.28;2.38;;;;;;;;;;7028822;28;20463;-88
2021/07/16 15:34:56;;;;;;;4.93;2.05;;;;;;;;;;7027329;28;20498;-89
2021/07/16 15:38:17;;;;;;;6.95;2.30;;;;;;;;;;7026751;28;20440;-89
2021/07/16 15:41:38;;;;;;;6.97;2.75;;;;;;;;;;7026941;28;20055;-89
2021/07/16 15:44:58;;;;;;;7.80;1.98;;;;;;;;;;7016960;28;20044;-85
2021/07/16 15:48:19;;;;;;;7.05;2.40;;;;;;;;;;7000530;28;20414;-88
2021/07/16 15:51:39;;;;;;;3.58;2.17;;;;;;;;;;6997319;28;20044;-89
2021/07/16 15:55:00;;;;;;;12.30;2.40;;;;;;;;;;7001559;28;20332;-87
2021/07/16 15:58:20;;;;;;;6.68;2.20;;;;;;;;;;7004719;28;20126;-86
2021/07/16 16:01:41;;;;;;;8.32;2.40;;;;;;;;;;6998255;28;20036;-87
2021/07/16 16:05:03;;;;;;;6.93;2.17;;;;;;;;;;7012527;28;20074;-87
2021/07/16 16:08:23;;;;;;;6.53;2.28;;;;;;;;;;7019904;28;20528;-86
2021/07/16 16:11:43;;;;;;;3.63;1.88;;;;;;;;;;7008338;28;20080;-87
2021/07/16 16:15:08;;;;;;;9.63;2.15;;;;;;;;;;7026320;28;20055;-85
2021/07/16 16:18:29;;;;;;;2.85;1.80;;;;;;;;;;7026030;28;20047;-86
2021/07/16 16:21:49;;;;;;;9.40;2.40;;;;;;;;;;7026311;28;20131;-85
2021/07/16 16:25:11;;;;;;;4.68;1.95;;;;;;;;;;7027939;28;20046;-88
2021/07/16 16:28:32;;;;;;;5.45;2.28;;;;;;;;;;7028538;28;20037;-89
2021/07/16 16:31:52;;;;;;;4.85;2.15;;;;;;;;;;7027936;28;20481;-90
2021/07/16 16:35:13;;;;;;;3.45;2.10;;;;;;;;;;7026893;28;20036;-86
2021/07/16 16:38:35;;;;;;;3.53;1.88;;;;;;;;;;7026531;28;20052;-86
2021/07/16 16:41:55;;;;;;;5.35;1.90;;;;;;;;;;7011569;28;20086;-88
2021/07/16 16:45:20;;;;;;;5.50;2.03;;;;;;;;;;7025527;28;20047;-87
2021/07/16 16:48:43;;;;;;;5.00;1.70;;;;;;;;;;7025455;28;20071;-84
2021/07/16 16:52:05;;;;;;;5.57;1.98;;;;;;;;;;7025355;28;20134;-86
2021/07/16 16:55:25;;;;;;;3.67;1.70;;;;;;;;;;7024500;28;20515;-85
2021/07/16 16:58:46;;;;;;;2.38;1.60;;;;;;;;;;7025439;28;20489;-86
2021/07/16 17:02:07;;;;;;;18.50;1.65;;;;;;;;;;7024530;28;20075;-85
2021/07/16 17:05:27;;;;;;;5.22;1.90;;;;;;;;;;7024734;28;20048;-85
2021/07/16 17:08:48;;;;;;;4.03;1.75;;;;;;;;;;7019170;28;20559;-85
2021/07/16 17:12:09;;;;;;;3.72;1.70;;;;;;;;;;7008279;28;20090;-90
2021/07/16 17:15:30;;;;;;;2.92;1.67;;;;;;;;;;7024992;28;20052;-92
2021/07/16 17:18:50;;;;;;;4.30;2.00;;;;;;;;;;7025275;28;20040;-89
2021/07/16 17:22:11;;;;;;;7.05;2.17;;;;;;;;;;7024434;28;20090;-89
2021/07/16 17:25:32;;;;;;;7.85;2.00;;;;;;;;;;7025238;28;20048;-90
2021/07/16 17:28:52;;;;;;;4.95;1.90;;;;;;;;;;7024908;28;20134;-88
2021/07/16 17:32:13;;;;;;;4.03;1.98;;;;;;;;;;7024635;28;20040;-90
2021/07/16 17:35:33;;;;;;;3.72;1.77;;;;;;;;;;7024252;28;20051;-89
2021/07/16 17:38:54;;;;;;;10.73;2.60;;;;;;;;;;6991284;28;20135;-91
2021/07/16 17:42:15;;;;;;;3.88;1.70;;;;;;;;;;7024320;28;20040;-88
2021/07/16 17:45:35;;;;;;;2.83;1.73;;;;;;;;;;7024375;28;20052;-89
2021/07/16 17:48:55;;;;;;;2.85;1.73;;;;;;;;;;7024554;28;20097;-90
2021/07/16 17:52:16;;;;;;;5.72;2.08;;;;;;;;;;7024310;28;20127;-91
2021/07/16 17:55:36;;;;;;;8.25;2.30;;;;;;;;;;7006486;28;20133;-86
2021/07/16 17:58:57;;;;;;;4.30;2.00;;;;;;;;;;7024052;28;20040;-85
2021/07/16 18:02:17;;;;;;;12.00;2.40;;;;;;;;;;7024009;28;20048;-86
2021/07/16 18:05:38;;;;;;;4.57;2.05;;;;;;;;;;7023952;28;20189;-87
2021/07/16 18:08:58;;;;;;;8.98;2.90;;;;;;;;;;7023847;28;20055;-87
2021/07/16 18:12:18;;;;;;;8.10;2.30;;;;;;;;;;7009132;28;20068;-87
2021/07/16 18:15:39;;;;;;;11.40;2.63;;;;;;;;;;7009060;28;20398;-88
2021/07/16 18:18:59;;;;;;;4.53;2.17;;;;;;;;;;7023901;28;20093;-88
2021/07/16 18:22:20;;;;;;;5.28;2.53;;;;;;;;;;7015832;28;20044;-88
2021/07/16 18:25:42;;;;;;;5.97;2.80;;;;;;;;;;7014884;28;20040;-87
2021/07/16 18:29:02;;;;;;;6.35;2.60;;;;;;;;;;7020654;28;20044;-88
2021/07/16 18:32:23;;;;;;;10.57;2.70;;;;;;;;;;7003808;28;20051;-88
2021/07/16 18:35:47;;;;;;;8.52;2.85;;;;;;;;;;7026433;28;20401;-88
2021/07/16 18:39:07;;;;;;;7.55;2.88;;;;;;;;;;7027813;28;20099;-88
2021/07/16 18:42:28;;;;;;;5.10;2.58;;;;;;;;;;7010752;28;20383;-88
2021/07/16 18:45:48;;;;;;;4.32;2.42;;;;;;;;;;7026138;28;20084;-88
2021/07/16 18:49:09;;;;;;;5.38;2.55;;;;;;;;;;7028188;28;20056;-88
2021/07/16 18:52:29;;;;;;;9.65;2.85;;;;;;;;;;7025480;28;20102;-90
2021/07/16 18:55:50;;;;;;;7.40;2.40;;;;;;;;;;7014476;28;20048;-87
2021/07/16 18:59:10;;;;;;;10.23;2.58;;;;;;;;;;7025898;28;20122;-88
2021/07/16 19:02:32;;;;;;;5.82;1.95;;;;;;;;;;7026108;28;20138;-87
2021/07/16 19:05:53;;;;;;;6.25;2.05;;;;;;;;;;7027198;28;20052;-87
2021/07/16 19:09:13;;;;;;;11.82;2.28;;;;;;;;;;7025997;28;20047;-88
2021/07/16 19:12:35;;;;;;;6.00;2.40;;;;;;;;;;7003431;28;20041;-88
2021/07/16 19:15:55;;;;;;;3.88;1.83;;;;;;;;;;7020708;28;20059;-87
2021/07/16 19:19:15;;;;;;;3.13;2.00;;;;;;;;;;7027130;28;20076;-87
2021/07/16 19:22:36;;;;;;;4.75;1.85;;;;;;;;;;7027054;28;20098;-88
2021/07/16 19:25:56;;;;;;;11.05;2.05;;;;;;;;;;7027024;28;20048;-87
2021/07/16 19:29:17;;;;;;;3.92;2.00;;;;;;;;;;7027421;28;20040;-85
2021/07/16 19:32:38;;;;;;;2.10;1.63;;;;;;;;;;7027047;28;20083;-85
2021/07/16 19:35:58;;;;;;;6.97;1.90;;;;;;;;;;7021277;28;20056;-85
2021/07/16 19:39:19;;;;;;;3.58;1.90;;;;;;;;;;6997800;28;20076;-85
2021/07/16 19:42:39;;;;;;;4.13;1.88;;;;;;;;;;7012767;28;20044;-85
2021/07/16 19:46:00;;;;;;;5.55;2.05;;;;;;;;;;7026653;28;20040;-85
2021/07/16 19:49:22;;;;;;;6.75;1.90;;;;;;;;;;7026664;28;20421;-86
2021/07/16 19:52:42;;;;;;;4.60;2.00;;;;;;;;;;7027190;28;20078;-85
2021/07/16 19:56:03;;;;;;;4.82;2.10;;;;;;;;;;7028852;28;20434;-87
2021/07/16 19:59:24;;;;;;;4.80;2.03;;;;;;;;;;7029525;28;20063;-86
2021/07/16 20:02:47;;;;;;;3.35;2.20;;;;;;;;;;7029086;28;20173;-86
2021/07/16 20:06:08;;;;;;;4.35;2.00;;;;;;;;;;7028641;28;20051;-86